Time;durP1;ratioP1;P1;durP2;ratioP2;P2;SDS_P1;SDS_P2;PMS_P1;PMS_P2;Temp;Humidity;BMP_temperature;BMP_pressure;BME280_temperature;BME280_humidity;BME280_pressure;Samples;Min_cycle;Max_cycle;Signal;HPM_P1;HPM_P2
2022/11/19 00:00:25;;;;;;;17.60;10.00;;;;;;;42.54;33.61;100928.31;5038114;28;20415;-76
2022/11/19 00:02:54;;;;;;;17.60;8.93;;;;;;;42.63;33.32;100918.16;5038255;28;20204;-74
2022/11/19 00:05:20;;;;;;;16.70;9.83;;;;;;;42.69;33.38;100913.28;5056299;28;20161;-74
2022/11/19 00:07:46;;;;;;;15.50;8.90;;;;;;;42.33;33.95;100920.97;5056116;28;21067;-74
2022/11/19 00:10:12;;;;;;;22.60;11.37;;;;;;;42.42;34.02;100911.91;5037945;28;20415;-74
2022/11/19 00:12:56;;;;;;;18.90;10.10;;;;;;;42.42;33.73;100911.91;5037834;28;20577;-76
2022/11/19 00:15:22;;;;;;;28.80;9.67;;;;;;;42.52;33.58;100911.50;5037902;28;20652;-76
2022/11/19 00:17:48;;;;;;;25.50;13.00;;;;;;;42.36;33.64;100903.97;5037765;28;20429;-75
2022/11/19 00:20:16;;;;;;;11.60;10.20;;;;;;;42.47;33.51;100893.41;5037858;28;20460;-75
2022/11/19 00:22:43;;;;;;;23.10;11.20;;;;;;;42.44;33.69;100894.09;5037421;28;20489;-74
2022/11/19 00:25:10;;;;;;;19.67;10.20;;;;;;;42.57;33.55;100894.91;5037667;28;20988;-74
2022/11/19 00:27:37;;;;;;;21.40;10.10;;;;;;;42.50;33.61;100890.03;5037697;28;20478;-75
2022/11/19 00:30:03;;;;;;;18.37;11.67;;;;;;;42.58;32.92;100882.91;5037510;28;20423;-75
2022/11/19 00:32:30;;;;;;;19.40;10.57;;;;;;;42.29;33.66;100881.88;5037232;28;20992;-74
2022/11/19 00:34:56;;;;;;;13.63;8.63;;;;;;;42.40;33.26;100880.34;5037514;28;20489;-74
2022/11/19 00:37:22;;;;;;;20.07;10.23;;;;;;;42.11;33.72;100874.97;5037407;28;20964;-74
2022/11/19 00:39:48;;;;;;;22.60;11.33;;;;;;;42.06;33.83;100872.47;5037643;28;20517;-74
2022/11/19 00:42:14;;;;;;;21.23;8.80;;;;;;;42.20;33.86;100870.28;5037378;28;20525;-74
2022/11/19 00:44:40;;;;;;;26.27;9.70;;;;;;;42.07;34.12;100863.16;5037198;28;20505;-75
2022/11/19 00:47:06;;;;;;;20.40;13.00;;;;;;;41.81;34.29;100866.94;5037587;28;20454;-74
2022/11/19 00:49:32;;;;;;;15.80;10.20;;;;;;;42.14;34.05;100869.66;5037199;28;20422;-76
2022/11/19 00:51:58;;;;;;;24.03;9.80;;;;;;;42.13;33.90;100864.56;5037161;28;20693;-76
2022/11/19 00:54:24;;;;;;;23.30;10.87;;;;;;;42.22;34.03;100868.00;5037313;28;20415;-75
2022/11/19 00:56:50;;;;;;;32.07;11.03;;;;;;;42.21;34.05;100860.19;5036298;28;20193;-74
2022/11/19 00:59:16;;;;;;;26.00;13.30;;;;;;;42.22;34.14;100854.38;5054889;28;20749;-74
2022/11/19 01:01:42;;;;;;;15.80;8.97;;;;;;;42.35;33.95;100858.72;5036852;28;20550;-74
2022/11/19 01:04:08;;;;;;;14.80;9.63;;;;;;;42.35;34.03;100855.22;5036859;28;20234;-74
2022/11/19 01:06:34;;;;;;;14.53;9.03;;;;;;;42.43;33.72;100857.06;5036855;28;20182;-75
2022/11/19 01:09:00;;;;;;;17.97;9.70;;;;;;;42.28;33.92;100861.22;5036749;28;20422;-74
2022/11/19 01:11:28;;;;;;;17.00;8.33;;;;;;;42.34;34.05;100859.88;5036924;28;20242;-74
2022/11/19 01:13:55;;;;;;;18.83;9.50;;;;;;;42.34;34.03;100854.41;5036856;28;20443;-74
2022/11/19 01:16:24;;;;;;;13.20;9.10;;;;;;;42.36;33.93;100854.88;5036790;28;20423;-74
2022/11/19 01:18:50;;;;;;;22.43;11.40;;;;;;;42.22;34.12;100843.47;5036613;28;20488;-75
2022/11/19 01:21:18;;;;;;;14.57;8.97;;;;;;;42.24;34.54;100843.97;5036999;28;20465;-74
2022/11/19 01:23:45;;;;;;;11.33;9.33;;;;;;;42.32;34.27;100848.50;5036378;28;20509;-75
2022/11/19 01:26:12;;;;;;;19.37;11.10;;;;;;;42.15;34.43;100843.19;5036722;28;20536;-75
2022/11/19 01:28:38;;;;;;;21.37;11.60;;;;;;;42.27;34.41;100843.28;5036444;28;20418;-76
2022/11/19 01:31:12;;;;;;;17.83;10.53;;;;;;;42.27;33.96;100835.09;5036306;28;20449;-76
2022/11/19 01:33:39;;;;;;;24.13;13.93;;;;;;;41.93;34.84;100840.84;5036334;28;20434;-76
2022/11/19 01:36:07;;;;;;;20.73;10.70;;;;;;;42.17;34.39;100838.22;5036173;28;20480;-76
2022/11/19 01:38:33;;;;;;;17.77;10.97;;;;;;;41.91;35.14;100843.13;5036225;28;20443;-76
2022/11/19 01:40:59;;;;;;;18.70;10.07;;;;;;;42.03;34.61;100835.00;5036104;28;20419;-76
2022/11/19 01:43:50;;;;;;;14.93;10.10;;;;;;;41.49;35.61;100843.09;5036192;28;20552;-76
2022/11/19 01:46:19;;;;;;;17.73;10.87;;;;;;;41.31;35.83;100837.78;5036029;28;20436;-75
2022/11/19 01:49:03;;;;;;;20.53;11.10;;;;;;;41.47;35.64;100840.72;5036161;28;20509;-75
2022/11/19 01:51:39;;;;;;;19.60;12.00;;;;;;;41.43;35.58;100834.34;5035993;28;20457;-75
2022/11/19 01:54:27;;;;;;;21.13;11.07;;;;;;;41.93;35.09;100836.22;5036244;28;20433;-75
2022/11/19 01:56:54;;;;;;;17.40;9.23;;;;;;;41.66;35.27;100834.81;5035989;28;20442;-74
2022/11/19 01:59:21;;;;;;;16.87;8.53;;;;;;;41.69;35.65;100831.44;5035862;28;20418;-75
2022/11/19 02:01:47;;;;;;;19.47;10.70;;;;;;;41.83;35.38;100829.25;5035849;28;20951;-75
2022/11/19 02:04:16;;;;;;;26.17;12.47;;;;;;;41.97;34.75;100836.34;5035784;28;20477;-75
2022/11/19 02:06:44;;;;;;;29.93;11.80;;;;;;;41.91;35.01;100840.41;5035778;28;20479;-75
2022/11/19 02:09:10;;;;;;;19.07;10.70;;;;;;;41.85;35.45;100840.59;5035707;28;20446;-75
2022/11/19 02:11:56;;;;;;;17.03;8.57;;;;;;;41.25;36.08;100841.00;5035432;28;20423;-76
2022/11/19 02:14:41;;;;;;;20.70;9.47;;;;;;;41.56;35.65;100846.13;5035298;28;20425;-76
2022/11/19 02:17:37;;;;;;;24.30;10.30;;;;;;;41.49;36.02;100832.22;5035833;28;20411;-76
2022/11/19 02:20:28;;;;;;;16.80;9.13;;;;;;;41.35;36.24;100846.09;5011730;28;20461;-75
2022/11/19 02:23:14;;;;;;;18.77;10.60;;;;;;;41.12;36.87;100837.38;5034433;28;21010;-74
2022/11/19 02:26:05;;;;;;;18.80;10.70;;;;;;;41.68;35.89;100851.63;4995974;28;20449;-74
2022/11/19 02:28:50;;;;;;;15.90;10.70;;;;;;;41.60;35.85;100855.19;5035348;28;20426;-76
2022/11/19 02:31:56;;;;;;;20.70;11.07;;;;;;;41.37;36.29;100852.00;5035210;28;20419;-76
2022/11/19 02:34:51;;;;;;;19.07;11.80;;;;;;;41.37;36.09;100851.19;5018844;28;20430;-75
2022/11/19 02:37:23;;;;;;;17.43;9.93;;;;;;;41.16;36.63;100845.69;5034920;28;20442;-76
2022/11/19 02:40:27;;;;;;;17.90;9.70;;;;;;;41.23;36.56;100846.78;5031930;28;20476;-76
2022/11/19 02:43:20;;;;;;;26.03;10.50;;;;;;;41.25;36.34;100830.94;5035235;28;20541;-75
2022/11/19 02:45:52;;;;;;;16.00;10.13;;;;;;;41.19;36.39;100839.59;5034981;28;20440;-76
2022/11/19 02:48:30;;;;;;;18.73;10.30;;;;;;;41.20;36.41;100839.28;5034980;28;20446;-76
2022/11/19 02:51:00;;;;;;;24.07;10.73;;;;;;;41.05;36.61;100828.94;5035015;28;20417;-76
2022/11/19 02:53:26;;;;;;;16.87;9.50;;;;;;;41.29;36.42;100839.22;5034850;28;20946;-76
2022/11/19 02:56:10;;;;;;;21.73;11.40;;;;;;;40.96;37.06;100826.28;5034891;28;20453;-75
2022/11/19 03:04:31;;;;;;;21.23;10.60;;;;;;;40.96;37.09;100837.16;5052786;28;20465;-76
2022/11/19 03:07:14;;;;;;;14.67;10.13;;;;;;;41.28;36.25;100841.13;5034784;28;20437;-76
2022/11/19 03:09:48;;;;;;;27.23;10.70;;;;;;;41.11;36.39;100840.44;5034604;28;20473;-76
2022/11/19 03:12:43;;;;;;;21.60;12.47;;;;;;;41.01;36.92;100845.16;5034635;28;20487;-75
2022/11/19 03:18:11;;;;;;;17.90;9.40;;;;;;;40.83;36.86;100843.59;5052466;28;20418;-75
2022/11/19 03:21:13;;;;;;;23.33;11.30;;;;;;;40.78;36.73;100851.94;5033998;28;20415;-75
2022/11/19 03:24:01;;;;;;;21.63;11.50;;;;;;;40.99;36.98;100852.03;5020967;28;20482;-75
2022/11/19 03:26:46;;;;;;;19.60;11.23;;;;;;;40.69;37.46;100851.16;5034450;28;20446;-76
2022/11/19 03:29:14;;;;;;;19.27;12.60;;;;;;;40.87;36.89;100847.25;5034325;28;20840;-74
2022/11/19 03:31:47;;;;;;;19.50;11.00;;;;;;;40.83;37.24;100859.94;5034439;28;20454;-74
2022/11/19 03:34:19;;;;;;;41.77;10.97;;;;;;;41.11;36.52;100856.78;5034397;28;20419;-74
2022/11/19 03:36:47;;;;;;;21.50;10.40;;;;;;;41.23;36.49;100851.41;5034718;28;20433;-74
2022/11/19 03:39:17;;;;;;;18.90;11.97;;;;;;;41.32;35.96;100857.63;5052367;28;20469;-75
2022/11/19 03:41:46;;;;;;;23.30;10.00;;;;;;;41.42;36.35;100861.91;5034298;28;20950;-75
2022/11/19 03:44:38;;;;;;;20.00;11.30;;;;;;;41.65;36.21;100865.91;5034250;28;20837;-75
2022/11/19 03:47:13;;;;;;;17.57;11.37;;;;;;;41.46;35.90;100871.00;5030033;28;20469;-75
2022/11/19 03:49:45;;;;;;;16.87;10.80;;;;;;;41.62;35.80;100874.75;5034162;28;20430;-75
2022/11/19 03:52:18;;;;;;;16.20;10.80;;;;;;;41.55;35.70;100877.16;5034281;28;20426;-74
2022/11/19 03:54:44;;;;;;;18.20;9.13;;;;;;;41.33;35.90;100876.38;5034108;28;20784;-75
2022/11/19 03:57:14;;;;;;;13.03;9.00;;;;;;;41.14;36.53;100877.91;5034197;28;20422;-75
2022/11/19 03:59:40;;;;;;;17.93;11.27;;;;;;;41.40;36.34;100872.31;5034116;28;20930;-75
2022/11/19 04:02:08;;;;;;;22.77;10.77;;;;;;;41.30;36.04;100873.47;5034532;28;20437;-75
2022/11/19 04:04:35;;;;;;;20.30;8.47;;;;;;;41.26;36.07;100869.81;5034000;28;20467;-75
2022/11/19 04:07:09;;;;;;;15.90;9.87;;;;;;;41.45;35.52;100864.75;5034124;28;20454;-76
2022/11/19 04:09:36;;;;;;;19.43;9.27;;;;;;;41.53;35.81;100869.34;5034211;28;20427;-76
2022/11/19 04:12:03;;;;;;;21.53;15.17;;;;;;;41.56;35.53;100865.19;5050636;28;20443;-75
2022/11/19 04:14:29;;;;;;;15.17;9.30;;;;;;;41.63;35.42;100867.38;5034036;28;20421;-76
2022/11/19 04:16:55;;;;;;;18.47;10.20;;;;;;;41.55;35.54;100871.72;5052204;28;20403;-75
2022/11/19 04:19:21;;;;;;;18.57;10.07;;;;;;;41.56;35.69;100876.06;5035039;28;20431;-76
2022/11/19 04:21:47;;;;;;;24.27;10.50;;;;;;;41.81;35.19;100883.28;5034038;28;20478;-75
2022/11/19 04:24:13;;;;;;;16.40;10.53;;;;;;;41.63;35.56;100884.50;5033671;28;20509;-75
2022/11/19 04:26:39;;;;;;;17.70;10.87;;;;;;;41.47;35.78;100883.50;5034045;28;20802;-76
2022/11/19 04:29:04;;;;;;;18.83;11.20;;;;;;;41.59;35.97;100883.56;5034143;28;20956;-76
2022/11/19 04:31:30;;;;;;;17.63;10.50;;;;;;;41.50;35.82;100877.41;5034011;28;20255;-76
2022/11/19 04:33:56;;;;;;;23.00;9.83;;;;;;;41.71;35.30;100880.91;5037373;28;20450;-76
2022/11/19 04:36:22;;;;;;;13.37;8.57;;;;;;;41.13;35.86;100879.00;5037455;28;20433;-76
2022/11/19 04:38:48;;;;;;;16.53;9.17;;;;;;;41.34;35.52;100890.78;5037549;28;20271;-76
2022/11/19 04:41:14;;;;;;;19.13;9.60;;;;;;;41.31;35.83;100889.50;5037291;28;20481;-75
2022/11/19 04:43:40;;;;;;;16.90;10.97;;;;;;;41.56;35.69;100903.31;5037311;28;20462;-74
2022/11/19 04:46:06;;;;;;;18.07;12.00;;;;;;;41.60;35.41;100904.22;5037244;28;20684;-74
2022/11/19 04:48:32;;;;;;;19.73;10.60;;;;;;;41.69;34.91;100910.41;5037179;28;20238;-75
2022/11/19 04:50:58;;;;;;;20.23;10.50;;;;;;;41.62;35.36;100915.59;5037789;28;20537;-75
2022/11/19 04:53:24;;;;;;;18.10;12.43;;;;;;;40.87;36.63;100917.19;5037052;28;20439;-76
2022/11/19 04:55:49;;;;;;;25.73;13.50;;;;;;;40.58;37.23;100917.88;5037159;28;20230;-76
2022/11/19 04:58:16;;;;;;;26.33;16.20;;;;;;;40.67;37.06;100914.03;5037029;28;20441;-74
2022/11/19 05:00:41;;;;;;;36.10;20.57;;;;;;;40.50;37.59;100909.44;5036534;28;20641;-74
2022/11/19 05:03:07;;;;;;;35.40;21.80;;;;;;;40.71;37.21;100925.88;5037011;28;20461;-76
2022/11/19 05:05:33;;;;;;;32.00;23.20;;;;;;;40.99;36.91;100931.72;5037056;28;20434;-75
2022/11/19 05:07:59;;;;;;;32.20;22.00;;;;;;;40.70;37.38;100921.56;5036845;28;20187;-74
2022/11/19 05:10:25;;;;;;;27.30;23.93;;;;;;;40.01;38.67;100924.28;5036844;28;20176;-74
2022/11/19 05:12:51;;;;;;;34.90;24.33;;;;;;;40.58;38.14;100921.44;5054932;28;20196;-76
2022/11/19 05:15:17;;;;;;;29.60;22.67;;;;;;;40.57;37.77;100927.97;5037008;28;20738;-76
2022/11/19 05:17:44;;;;;;;32.20;23.90;;;;;;;40.62;37.61;100933.25;5036790;28;20184;-76
2022/11/19 05:20:10;;;;;;;45.03;26.83;;;;;;;40.69;37.75;100927.31;5036584;28;20418;-76
2022/11/19 05:22:36;;;;;;;56.30;31.40;;;;;;;40.81;37.56;100938.31;5034340;28;20500;-74
2022/11/19 05:25:02;;;;;;;34.77;26.47;;;;;;;40.88;36.86;100933.16;5036082;28;20822;-74
2022/11/19 05:27:28;;;;;;;38.27;27.03;;;;;;;40.57;37.59;100962.53;5036412;28;20833;-75
2022/11/19 05:29:54;;;;;;;37.13;24.17;;;;;;;40.33;37.79;100961.09;5036463;28;20426;-76
2022/11/19 05:32:20;;;;;;;36.33;24.07;;;;;;;40.05;37.96;100971.47;5036564;28;20935;-75
2022/11/19 05:34:46;;;;;;;27.67;22.50;;;;;;;40.29;37.90;100971.00;5036488;28;20168;-75
2022/11/19 05:37:12;;;;;;;32.73;21.97;;;;;;;39.86;38.50;100970.94;5036828;28;20191;-74
2022/11/19 05:39:38;;;;;;;34.73;19.87;;;;;;;39.58;39.22;100978.50;5036365;28;20423;-76
2022/11/19 05:42:04;;;;;;;30.23;20.27;;;;;;;39.97;38.89;100997.50;5036591;28;20177;-76
2022/11/19 05:44:29;;;;;;;27.93;19.97;;;;;;;39.88;38.88;100993.13;5035758;28;20195;-76
2022/11/19 05:46:56;;;;;;;26.80;19.17;;;;;;;40.08;38.42;100973.53;5036378;28;20984;-74
2022/11/19 05:49:22;;;;;;;27.40;20.50;;;;;;;40.28;37.98;100962.06;5032852;28;20418;-74
2022/11/19 05:51:48;;;;;;;28.53;18.93;;;;;;;40.46;37.87;100964.75;5036055;28;20523;-74
2022/11/19 05:54:14;;;;;;;36.83;19.57;;;;;;;40.42;37.89;100970.03;5036290;28;20829;-76
2022/11/19 05:56:40;;;;;;;24.53;19.43;;;;;;;40.40;37.53;100976.91;5035972;28;20187;-75
2022/11/19 05:59:06;;;;;;;29.50;21.20;;;;;;;40.56;37.63;100991.63;5035847;28;20426;-75
2022/11/19 06:01:32;;;;;;;31.63;18.50;;;;;;;40.68;37.61;100991.78;5035747;28;20425;-75
2022/11/19 06:03:58;;;;;;;26.60;18.87;;;;;;;40.80;37.38;100996.56;5053938;28;20648;-74
2022/11/19 06:06:24;;;;;;;28.20;20.87;;;;;;;40.39;38.09;101002.47;5036772;28;20237;-75
2022/11/19 06:08:50;;;;;;;27.83;20.17;;;;;;;40.34;37.96;100989.06;5035675;28;20449;-75
2022/11/19 06:14:00;;;;;;;27.37;18.63;;;;;;;40.83;37.44;100990.50;5054036;28;20203;-74
2022/11/19 06:16:26;;;;;;;36.50;20.23;;;;;;;40.56;37.48;100983.47;5035593;28;20415;-74
2022/11/19 06:18:52;;;;;;;36.37;19.70;;;;;;;40.81;37.39;100987.28;5052944;28;20175;-75
2022/11/19 06:21:19;;;;;;;20.53;16.03;;;;;;;40.77;37.46;100984.41;5035226;28;20423;-75
2022/11/19 06:23:44;;;;;;;30.53;18.13;;;;;;;40.08;38.81;100989.84;5034803;28;20918;-75
2022/11/19 06:26:11;;;;;;;20.00;16.03;;;;;;;40.38;38.40;100992.72;5033942;28;20953;-75
2022/11/19 06:28:37;;;;;;;27.30;20.20;;;;;;;40.15;38.86;100989.38;5033558;28;20203;-74
2022/11/19 06:31:03;;;;;;;34.17;24.40;;;;;;;40.33;38.59;100991.00;5033503;28;20471;-75
2022/11/19 06:33:29;;;;;;;31.67;19.87;;;;;;;40.25;38.40;100984.41;5033673;28;20598;-75
2022/11/19 06:35:55;;;;;;;29.33;22.00;;;;;;;39.95;39.01;100988.84;5033321;28;20547;-75
2022/11/19 06:38:21;;;;;;;37.83;21.80;;;;;;;39.53;39.71;100990.28;5033576;28;20614;-75
2022/11/19 06:40:47;;;;;;;33.37;20.53;;;;;;;39.94;39.10;100986.44;5031060;28;20234;-75
2022/11/19 06:43:12;;;;;;;34.67;24.47;;;;;;;40.03;38.80;101003.56;5033590;28;20196;-75
2022/11/19 06:45:38;;;;;;;37.57;28.07;;;;;;;39.57;39.78;101004.84;5034557;28;20427;-75
2022/11/19 06:48:04;;;;;;;40.27;24.23;;;;;;;40.00;39.34;101002.28;5034674;28;20190;-75
2022/11/19 06:50:30;;;;;;;31.40;23.70;;;;;;;39.98;39.06;101014.59;5034845;28;20414;-75
2022/11/19 06:52:56;;;;;;;34.30;24.50;;;;;;;40.25;38.34;101025.19;5034985;28;20497;-77
2022/11/19 06:55:22;;;;;;;39.00;25.90;;;;;;;39.99;38.64;101037.91;5034278;28;20498;-76
2022/11/19 06:57:48;;;;;;;36.73;26.33;;;;;;;40.38;38.27;101044.38;5052854;28;20160;-76
2022/11/19 07:00:15;;;;;;;38.97;25.17;;;;;;;40.40;38.30;101055.75;5035358;28;21022;-76
2022/11/19 07:02:40;;;;;;;32.37;24.17;;;;;;;40.11;38.45;101056.34;5034634;28;20180;-74
2022/11/19 07:05:07;;;;;;;35.53;25.77;;;;;;;40.53;38.09;101054.81;5034806;28;20422;-76
2022/11/19 07:07:33;;;;;;;34.03;24.90;;;;;;;40.61;37.63;101064.91;5034068;28;20530;-75
2022/11/19 07:09:59;;;;;;;33.10;24.63;;;;;;;40.05;38.64;101063.84;5034625;28;20807;-75
2022/11/19 07:12:41;;;;;;;37.00;24.27;;;;;;;40.55;38.04;101074.34;5034780;28;20455;-75
2022/11/19 07:15:07;;;;;;;42.80;25.33;;;;;;;40.73;37.60;101081.38;5034770;28;20421;-74
2022/11/19 07:17:33;;;;;;;37.40;25.17;;;;;;;40.69;37.48;101093.19;5034312;28;20414;-75
2022/11/19 07:19:59;;;;;;;45.60;27.90;;;;;;;40.59;38.09;101093.53;5034525;28;20947;-77
2022/11/19 07:22:26;;;;;;;33.87;27.73;;;;;;;40.78;37.45;101094.81;5034248;28;20454;-78
2022/11/19 07:24:54;;;;;;;38.80;22.93;;;;;;;40.21;38.18;101099.53;5034491;28;20573;-77
2022/11/19 07:27:20;;;;;;;33.90;26.40;;;;;;;40.12;38.62;101101.41;5034102;28;20529;-75
2022/11/19 07:29:45;;;;;;;46.57;24.03;;;;;;;40.70;37.71;101105.69;5052640;28;20422;-74
2022/11/19 07:32:11;;;;;;;41.10;27.03;;;;;;;40.62;37.97;101112.72;5033873;28;20645;-79
2022/11/19 07:34:37;;;;;;;42.97;27.67;;;;;;;40.45;37.78;101105.31;5034561;28;20208;-79
2022/11/19 07:37:03;;;;;;;35.67;28.20;;;;;;;40.85;37.32;101115.28;5034276;28;20545;-79
2022/11/19 07:39:29;;;;;;;37.83;28.57;;;;;;;41.04;37.03;101113.84;5034913;28;20187;-79
2022/11/19 07:44:39;;;;;;;33.73;28.27;;;;;;;40.82;37.77;101116.72;5051901;28;20242;-74
2022/11/19 07:47:07;;;;;;;38.67;28.07;;;;;;;40.48;38.07;101120.22;5034417;28;20442;-73
2022/11/19 07:49:33;;;;;;;32.37;26.00;;;;;;;40.48;37.90;101114.78;5034309;28;20506;-78
2022/11/19 07:51:59;;;;;;;32.00;27.80;;;;;;;40.81;37.56;101128.72;5051974;28;20406;-75
2022/11/19 07:54:25;;;;;;;30.83;25.87;;;;;;;40.70;37.37;101125.53;5030930;28;21000;-75
2022/11/19 07:56:51;;;;;;;33.53;29.37;;;;;;;40.96;37.08;101130.22;5014489;28;20945;-75
2022/11/19 07:59:17;;;;;;;38.00;27.47;;;;;;;40.89;37.42;101125.22;5033851;28;20187;-76
2022/11/19 08:01:43;;;;;;;43.07;31.50;;;;;;;41.16;37.20;101126.03;5052398;28;20235;-76
2022/11/19 08:04:10;;;;;;;40.17;29.97;;;;;;;41.34;37.06;101125.69;5034172;28;20451;-76
2022/11/19 08:06:36;;;;;;;33.60;24.30;;;;;;;41.50;36.14;101133.34;5033924;28;20831;-74
2022/11/19 08:09:03;;;;;;;33.47;25.90;;;;;;;41.31;36.58;101148.09;5035852;28;20426;-76
2022/11/19 08:11:29;;;;;;;31.80;26.23;;;;;;;41.51;36.13;101152.09;5035983;28;20517;-75
2022/11/19 08:13:57;;;;;;;37.03;29.27;;;;;;;41.46;36.35;101149.53;5035916;28;20537;-75
2022/11/19 08:19:10;;;;;;;32.33;28.20;;;;;;;41.80;35.97;101164.19;5054589;28;20410;-74
2022/11/19 08:21:39;;;;;;;34.63;28.40;;;;;;;41.79;35.63;101171.56;5037402;28;20422;-76
2022/11/19 08:24:07;;;;;;;41.47;26.67;;;;;;;41.19;36.86;101167.00;5037314;28;20485;-77
2022/11/19 08:26:32;;;;;;;34.20;27.20;;;;;;;41.39;36.46;101162.84;5055965;28;20454;-75
2022/11/19 08:28:58;;;;;;;36.77;28.70;;;;;;;41.40;36.95;101174.53;5037659;28;20418;-75
2022/11/19 08:31:25;;;;;;;43.87;31.27;;;;;;;41.65;36.36;101172.88;5037854;28;20208;-76
2022/11/19 08:33:52;;;;;;;31.00;27.13;;;;;;;41.79;36.29;101168.03;5055814;28;20464;-77
2022/11/19 08:36:18;;;;;;;39.87;26.70;;;;;;;41.32;36.92;101189.72;5037687;28;20525;-76
2022/11/19 08:38:44;;;;;;;31.70;23.90;;;;;;;41.49;36.46;101180.75;5038101;28;20501;-76
2022/11/19 08:43:54;;;;;;;36.33;24.50;;;;;;;41.79;36.05;101179.72;5055426;28;20492;-76
2022/11/19 08:46:20;;;;;;;30.70;23.70;;;;;;;41.87;36.10;101175.41;5037572;28;20423;-75
2022/11/19 08:48:46;;;;;;;34.33;22.90;;;;;;;41.47;36.42;101170.19;5037182;28;20318;-76
2022/11/19 08:51:15;;;;;;;39.97;21.60;;;;;;;42.04;35.81;101171.78;5037419;28;20176;-76
2022/11/19 08:53:41;;;;;;;34.23;24.87;;;;;;;42.33;35.23;101163.66;5037348;28;20177;-76
2022/11/19 08:56:07;;;;;;;33.73;16.57;;;;;;;42.51;34.45;101169.00;5037106;28;20981;-76
2022/11/19 08:58:33;;;;;;;25.20;17.23;;;;;;;42.58;34.40;101156.44;5055099;28;20413;-76
2022/11/19 09:00:59;;;;;;;26.87;17.63;;;;;;;42.50;34.58;101154.56;5037035;28;20464;-75
2022/11/19 09:03:25;;;;;;;21.43;15.30;;;;;;;42.45;34.43;101160.22;5036967;28;20476;-76
2022/11/19 09:05:58;;;;;;;19.37;14.13;;;;;;;42.31;34.40;101155.00;5036925;28;20594;-76
2022/11/19 09:08:24;;;;;;;24.67;14.23;;;;;;;41.97;35.30;101155.94;5036494;28;20738;-76
2022/11/19 09:10:50;;;;;;;20.43;13.13;;;;;;;42.12;34.73;101151.88;5036822;28;20414;-76
2022/11/19 09:13:16;;;;;;;28.10;14.93;;;;;;;42.45;34.45;101152.03;5036907;28;20821;-76
2022/11/19 09:15:42;;;;;;;19.93;13.23;;;;;;;42.57;34.38;101145.84;5036692;28;20233;-76
2022/11/19 09:18:08;;;;;;;26.53;13.70;;;;;;;42.50;34.32;101145.59;5035938;28;20627;-76
2022/11/19 09:20:36;;;;;;;20.10;13.97;;;;;;;42.51;34.29;101144.44;5036835;28;20176;-76
2022/11/19 09:23:02;;;;;;;19.67;12.03;;;;;;;42.76;33.76;101142.69;5036394;28;20282;-76
2022/11/19 09:25:28;;;;;;;29.60;13.87;;;;;;;42.39;34.77;101142.44;5036556;28;20885;-76
2022/11/19 09:27:54;;;;;;;17.77;11.50;;;;;;;42.19;35.13;101132.31;5036817;28;20199;-76
2022/11/19 09:30:20;;;;;;;17.03;12.30;;;;;;;42.25;35.04;101136.44;5036543;28;20176;-76
2022/11/19 09:32:46;;;;;;;18.97;14.07;;;;;;;42.35;35.31;101125.94;5036751;28;20449;-76
2022/11/19 09:35:12;;;;;;;19.47;12.97;;;;;;;42.55;34.41;101129.03;5036490;28;20186;-76
2022/11/19 09:37:38;;;;;;;19.20;13.73;;;;;;;42.56;34.78;101136.88;5036375;28;20188;-76
2022/11/19 09:40:07;;;;;;;23.27;12.33;;;;;;;42.48;34.29;101137.75;5036658;28;20518;-77
2022/11/19 09:42:41;;;;;;;20.73;11.30;;;;;;;42.55;34.58;101132.56;5036300;28;20180;-76
2022/11/19 09:45:32;;;;;;;16.20;9.63;;;;;;;42.67;34.40;101126.41;5036336;28;20997;-74
2022/11/19 09:48:12;;;;;;;33.63;11.60;;;;;;;42.62;34.18;101118.41;5032694;28;20453;-75
2022/11/19 09:51:01;;;;;;;22.40;12.27;;;;;;;42.39;34.71;101132.34;5020141;28;20841;-75
2022/11/19 09:53:33;;;;;;;17.70;12.60;;;;;;;42.39;34.35;101147.91;5054509;28;20395;-74
2022/11/19 09:55:59;;;;;;;20.47;10.73;;;;;;;42.61;34.56;101147.63;5054054;28;20996;-74
2022/11/19 09:58:45;;;;;;;14.07;9.07;;;;;;;42.22;34.75;101137.88;5035963;28;20430;-74
2022/11/19 10:01:17;;;;;;;17.97;10.43;;;;;;;42.49;34.44;101133.09;5053589;28;20541;-74
2022/11/19 10:03:51;;;;;;;27.37;12.97;;;;;;;42.21;34.74;101122.66;5035932;28;20447;-74
2022/11/19 10:06:40;;;;;;;18.43;11.77;;;;;;;42.37;34.47;101128.34;5035933;28;20434;-74
2022/11/19 10:09:14;;;;;;;12.87;9.20;;;;;;;42.35;34.58;101128.66;5035731;28;21025;-74
2022/11/19 10:11:54;;;;;;;17.80;11.27;;;;;;;42.34;34.78;101129.00;5035728;28;20521;-75
2022/11/19 10:14:38;;;;;;;16.43;11.77;;;;;;;42.45;34.56;101132.16;5035639;28;20509;-73
2022/11/19 10:17:39;;;;;;;21.73;9.93;;;;;;;42.24;35.00;101113.84;5019228;28;20422;-75
2022/11/19 10:20:08;;;;;;;19.30;11.60;;;;;;;42.57;34.57;101118.56;5030315;28;20953;-74
2022/11/19 10:22:55;;;;;;;14.60;10.37;;;;;;;42.55;34.48;101110.72;5035721;28;20451;-74
2022/11/19 10:25:26;;;;;;;20.30;12.23;;;;;;;42.77;34.01;101098.69;5015636;28;20439;-74
2022/11/19 10:27:56;;;;;;;20.90;10.50;;;;;;;42.29;34.89;101100.00;4999759;28;20520;-74
2022/11/19 10:30:24;;;;;;;19.70;12.10;;;;;;;42.32;34.76;101096.63;5015546;28;20924;-75
2022/11/19 10:33:11;;;;;;;14.97;11.30;;;;;;;42.65;34.49;101085.78;5016252;28;20407;-74
2022/11/19 10:35:47;;;;;;;24.13;9.90;;;;;;;42.74;34.51;101080.28;5015374;28;20867;-74
2022/11/19 10:38:28;;;;;;;41.70;11.43;;;;;;;42.83;33.96;101080.97;5031994;28;20425;-74
2022/11/19 10:41:01;;;;;;;17.80;11.50;;;;;;;43.04;33.99;101086.44;5031851;28;20419;-74
2022/11/19 10:43:45;;;;;;;30.00;11.60;;;;;;;42.67;34.17;101081.97;5015321;28;20997;-74
2022/11/19 10:46:16;;;;;;;18.13;9.87;;;;;;;42.73;34.03;101078.69;5015407;28;20935;-74
2022/11/19 10:48:51;;;;;;;18.00;10.03;;;;;;;42.85;33.82;101075.22;5031735;28;20458;-74
2022/11/19 10:51:40;;;;;;;21.30;11.50;;;;;;;42.44;34.46;101082.25;5031642;28;20493;-74
2022/11/19 10:54:20;;;;;;;22.63;11.80;;;;;;;42.84;33.66;101079.84;5015184;28;20481;-75
2022/11/19 10:56:47;;;;;;;19.93;10.80;;;;;;;42.64;34.78;101088.84;5031570;28;20420;-74
2022/11/19 10:59:23;;;;;;;19.03;10.37;;;;;;;42.72;34.20;101085.25;5031484;28;20415;-74
2022/11/19 11:01:57;;;;;;;17.33;14.33;;;;;;;43.07;33.71;101074.84;5031529;28;20494;-76
2022/11/19 11:04:28;;;;;;;20.70;12.40;;;;;;;43.02;34.03;101069.59;5015076;28;20862;-74
2022/11/19 11:06:57;;;;;;;17.53;11.40;;;;;;;43.33;33.77;101063.63;5033054;28;20407;-74
2022/11/19 11:09:41;;;;;;;21.57;11.50;;;;;;;43.10;33.81;101054.28;5033096;28;20896;-74
2022/11/19 11:15:17;;;;;;;17.57;12.07;;;;;;;42.81;33.93;101042.31;5032992;28;20392;-74
2022/11/19 11:17:48;;;;;;;15.10;10.30;;;;;;;42.84;33.81;101038.13;5014528;28;20412;-74
2022/11/19 11:20:17;;;;;;;22.57;11.70;;;;;;;42.35;34.84;101027.78;5031243;28;20418;-74
2022/11/19 11:22:45;;;;;;;26.27;11.70;;;;;;;42.44;34.55;101024.19;5032414;28;20470;-75
2022/11/19 11:25:19;;;;;;;15.73;11.17;;;;;;;42.46;34.77;101033.63;5034558;28;20538;-74
2022/11/19 11:28:01;;;;;;;15.93;11.57;;;;;;;42.57;34.48;101025.84;5034548;28;20532;-75
2022/11/19 11:30:27;;;;;;;20.67;11.20;;;;;;;42.77;33.74;101027.75;5034266;28;20509;-76
2022/11/19 11:32:53;;;;;;;16.63;12.27;;;;;;;42.57;34.09;101013.03;5034497;28;20559;-76
2022/11/19 11:35:35;;;;;;;19.20;10.37;;;;;;;42.84;33.93;101013.56;5034488;28;20175;-75
2022/11/19 11:38:02;;;;;;;29.00;12.83;;;;;;;43.16;33.21;101014.69;5034474;28;20181;-74
2022/11/19 11:40:30;;;;;;;17.80;10.97;;;;;;;42.96;33.49;101019.03;5052694;28;20409;-76
2022/11/19 11:42:56;;;;;;;21.57;10.17;;;;;;;42.76;34.13;101014.47;5038123;28;20954;-76
2022/11/19 11:45:35;;;;;;;24.60;11.07;;;;;;;42.58;34.07;101020.06;5038582;28;20576;-75